createdAt,value
2022-12-09T08:05:03.078Z,23.63
2022-12-09T08:07:32.133Z,25.67
2022-12-09T08:10:00.646Z,24.00
2022-12-09T08:12:29.657Z,20.00
2022-12-09T08:14:57.865Z,20.57
2022-12-09T08:17:27.458Z,21.77
2022-12-09T08:19:56.475Z,28.57
2022-12-09T08:22:28.351Z,29.57
2022-12-09T08:24:58.839Z,29.40
2022-12-09T08:27:27.450Z,28.47
2022-12-09T08:29:55.611Z,26.93
2022-12-09T08:32:25.659Z,25.97
2022-12-09T08:34:54.092Z,22.67
2022-12-09T08:37:22.376Z,22.90
2022-12-09T08:39:52.097Z,22.20
2022-12-09T08:42:22.472Z,21.13
2022-12-09T08:44:54.729Z,20.13
2022-12-09T08:47:27.794Z,20.80
2022-12-09T08:49:56.623Z,22.23
2022-12-09T08:52:26.836Z,21.63
2022-12-09T08:54:59.286Z,23.13
2022-12-09T08:57:28.812Z,22.80
2022-12-09T08:59:57.148Z,22.63
2022-12-09T09:02:25.405Z,23.43
2022-12-09T09:04:57.580Z,24.93
2022-12-09T09:07:26.308Z,25.73
2022-12-09T09:09:54.878Z,26.27
2022-12-09T09:12:24.762Z,24.57
2022-12-09T09:14:54.823Z,22.50
2022-12-09T09:17:23.718Z,21.77
2022-12-09T09:19:52.462Z,22.40
2022-12-09T09:22:20.951Z,23.93
2022-12-09T09:24:51.228Z,21.87
2022-12-09T09:27:22.413Z,23.73
2022-12-09T09:29:54.966Z,24.73
2022-12-09T09:32:23.325Z,25.80
2022-12-09T09:34:55.361Z,24.63
2022-12-09T09:37:23.856Z,22.23
2022-12-09T09:39:52.233Z,21.87
2022-12-09T09:42:27.108Z,23.87
2022-12-09T09:44:57.027Z,23.30
2022-12-09T09:47:37.630Z,24.00
2022-12-09T09:50:18.094Z,23.17
2022-12-09T09:52:46.752Z,22.57
2022-12-09T09:55:16.855Z,23.50
2022-12-09T09:57:51.772Z,24.03
2022-12-09T10:00:26.712Z,23.13
2022-12-09T10:03:00.211Z,23.23
2022-12-09T10:05:34.474Z,20.30
2022-12-09T10:08:19.924Z,16.57
2022-12-09T10:10:53.623Z,17.97
2022-12-09T10:13:32.000Z,18.90
2022-12-09T10:16:10.307Z,18.63
2022-12-09T10:18:48.917Z,12.77
2022-12-09T10:21:19.433Z,11.97
2022-12-09T10:23:51.185Z,12.30
2022-12-09T10:26:26.584Z,12.03
2022-12-09T10:29:03.831Z,12.10
2022-12-09T10:31:34.440Z,12.00
2022-12-09T10:34:02.812Z,12.03
2022-12-09T10:36:35.986Z,13.07
2022-12-09T10:39:06.075Z,12.10
2022-12-09T10:41:59.092Z,12.03
2022-12-09T10:44:29.040Z,13.40
2022-12-09T10:47:05.200Z,15.17
2022-12-09T10:49:36.132Z,14.40
2022-12-09T10:52:05.692Z,14.60
2022-12-09T10:54:38.643Z,13.83
2022-12-09T10:57:25.206Z,11.67
2022-12-09T11:00:08.094Z,11.70
2022-12-09T11:02:38.284Z,10.23
2022-12-09T11:05:29.826Z,9.33
2022-12-09T11:08:00.774Z,9.23
2022-12-09T11:10:31.085Z,8.03
2022-12-09T11:13:04.619Z,8.47
2022-12-09T11:15:38.945Z,9.93
2022-12-09T11:18:20.202Z,12.40
2022-12-09T11:20:57.050Z,9.97
2022-12-09T11:23:25.524Z,10.90
2022-12-09T11:25:57.764Z,10.43
2022-12-09T11:28:29.351Z,9.60
2022-12-09T11:33:54.783Z,9.77
2022-12-09T11:36:29.824Z,9.90
2022-12-09T11:39:16.458Z,8.30
2022-12-09T11:42:12.934Z,6.80
2022-12-09T11:44:51.307Z,7.00
2022-12-09T11:47:50.376Z,6.20
2022-12-09T11:50:31.336Z,6.80
2022-12-09T11:53:09.272Z,5.10
2022-12-09T11:55:42.725Z,4.67
2022-12-09T11:58:16.341Z,4.67
2022-12-09T12:00:51.858Z,4.20
2022-12-09T12:03:23.588Z,4.90
2022-12-09T12:05:55.435Z,5.00
2022-12-09T12:08:31.396Z,5.13
2022-12-09T12:11:03.319Z,4.97
2022-12-09T12:13:39.259Z,5.80
2022-12-09T12:16:13.768Z,5.77
2022-12-09T12:18:47.679Z,6.03
2022-12-09T12:21:27.491Z,4.93
2022-12-09T12:24:16.364Z,5.57
2022-12-09T12:26:54.146Z,4.77
2022-12-09T12:29:35.191Z,4.70
2022-12-09T12:32:26.735Z,4.80
2022-12-09T12:35:09.815Z,4.70
2022-12-09T12:37:57.221Z,4.07
2022-12-09T12:40:36.691Z,3.70
2022-12-09T12:43:42.446Z,3.90
2022-12-09T12:46:27.166Z,3.90
2022-12-09T12:49:17.391Z,4.50
2022-12-09T12:51:54.676Z,4.13
2022-12-09T12:54:37.716Z,5.10
2022-12-09T12:57:14.840Z,5.43
2022-12-09T12:59:50.199Z,4.40
2022-12-09T13:02:29.757Z,4.57
2022-12-09T13:05:03.500Z,4.57
2022-12-09T13:07:38.209Z,4.13
2022-12-09T13:10:16.832Z,4.17
2022-12-09T13:12:56.595Z,4.30
2022-12-09T13:15:32.304Z,4.20
2022-12-09T13:18:07.312Z,5.33
2022-12-09T13:20:44.669Z,5.43
2022-12-09T13:23:23.187Z,5.67
2022-12-09T13:26:02.979Z,5.77
2022-12-09T13:28:43.645Z,5.83
2022-12-09T13:31:12.194Z,6.00
2022-12-09T13:33:54.489Z,6.47
2022-12-09T13:36:32.963Z,6.63
2022-12-09T13:39:04.624Z,6.60
2022-12-09T13:42:05.384Z,6.30
2022-12-09T13:44:39.448Z,7.10
2022-12-09T13:47:25.026Z,7.73
2022-12-09T13:50:02.778Z,8.40
2022-12-09T13:52:49.173Z,8.57
2022-12-09T13:55:34.839Z,8.17
2022-12-09T13:58:28.567Z,8.07
2022-12-09T14:01:07.969Z,8.00
2022-12-09T14:03:42.009Z,8.50
2022-12-09T14:06:23.056Z,8.93
2022-12-09T14:08:54.488Z,8.53
2022-12-09T14:11:49.183Z,9.33
2022-12-09T14:14:47.425Z,9.23
2022-12-09T14:17:38.784Z,9.03
2022-12-09T14:20:19.398Z,8.30
2022-12-09T14:23:04.424Z,8.93
2022-12-09T14:26:03.991Z,9.23
2022-12-09T14:29:01.458Z,8.97
2022-12-09T14:31:57.922Z,8.73
2022-12-09T14:34:38.625Z,8.23
2022-12-09T14:37:31.591Z,7.30
2022-12-09T14:40:16.908Z,8.57
2022-12-09T14:42:51.667Z,9.40
2022-12-09T14:45:30.425Z,8.47
2022-12-09T14:48:01.615Z,8.00
2022-12-09T14:50:30.332Z,7.10
2022-12-09T14:53:01.561Z,8.20
2022-12-09T14:55:31.465Z,7.17
2022-12-09T14:58:01.764Z,7.50
2022-12-09T15:00:34.086Z,8.13
